createdAt,value
2022-10-09T00:00:10.985Z,100172.47
2022-10-09T00:01:24.375Z,100168.94
2022-10-09T00:02:26.688Z,100167.28
2022-10-09T00:03:28.982Z,100165.69
2022-10-09T00:04:31.142Z,100170.06
2022-10-09T00:05:33.508Z,100166.47
2022-10-09T00:06:35.708Z,100161.53
2022-10-09T00:07:37.850Z,100176.22
2022-10-09T00:08:40.970Z,100161.47
2022-10-09T00:09:43.125Z,100168.63
2022-10-09T00:10:45.557Z,100168.53
2022-10-09T00:11:47.926Z,100175.34
2022-10-09T00:12:50.381Z,100163.19
2022-10-09T00:13:53.870Z,100165.72
2022-10-09T00:14:56.119Z,100162.84
2022-10-09T00:15:58.265Z,100163.63
2022-10-09T00:17:00.541Z,100151.25
2022-10-09T00:18:02.751Z,100151.22
2022-10-09T00:19:04.911Z,100148.72
2022-10-09T00:20:07.535Z,100149.53
2022-10-09T00:21:35.756Z,100153.19
2022-10-09T00:22:38.249Z,100139.34
2022-10-09T00:23:40.442Z,100148.00
2022-10-09T00:24:43.280Z,100150.94
2022-10-09T00:25:59.690Z,100146.44
2022-10-09T00:27:01.874Z,100153.22
2022-10-09T00:28:04.616Z,100141.84
2022-10-09T00:29:06.936Z,100148.69
2022-10-09T00:30:09.414Z,100146.91
2022-10-09T00:31:12.762Z,100145.13
2022-10-09T00:32:15.352Z,100149.41
2022-10-09T00:33:17.835Z,100141.56
2022-10-09T00:34:20.217Z,100153.16
2022-10-09T00:35:22.660Z,100153.31
2022-10-09T00:36:26.442Z,100146.53
2022-10-09T00:37:28.790Z,100146.66
2022-10-09T00:38:30.984Z,100142.31
2022-10-09T00:39:33.236Z,100139.78
2022-10-09T00:40:36.369Z,100147.47
2022-10-09T00:41:38.720Z,100145.72
2022-10-09T00:42:41.173Z,100140.47
2022-10-09T00:43:49.755Z,100145.69
2022-10-09T00:44:54.264Z,100125.06
2022-10-09T00:45:56.786Z,100145.91
2022-10-09T00:46:59.534Z,100147.78
2022-10-09T00:48:07.217Z,100149.59
2022-10-09T00:49:28.979Z,100144.59
2022-10-09T00:50:40.240Z,100137.66
2022-10-09T00:51:45.811Z,100143.78
2022-10-09T00:52:52.414Z,100138.34
2022-10-09T00:53:54.786Z,100132.06
2022-10-09T00:54:59.012Z,100142.47
2022-10-09T00:56:01.242Z,100132.00
2022-10-09T00:57:03.570Z,100138.81
2022-10-09T00:58:06.041Z,100137.94
2022-10-09T00:59:09.119Z,100132.69
2022-10-09T01:00:13.491Z,100137.03
2022-10-09T01:01:15.841Z,100131.84
2022-10-09T01:02:18.145Z,100138.81
2022-10-09T01:03:20.376Z,100132.78
2022-10-09T01:04:22.754Z,100123.22
2022-10-09T01:06:10.275Z,100137.13
2022-10-09T01:07:36.414Z,100137.84
2022-10-09T01:08:47.857Z,100133.50
2022-10-09T01:09:55.619Z,100127.44
2022-10-09T01:11:03.614Z,100122.19
2022-10-09T01:12:44.090Z,100132.78
2022-10-09T01:14:00.749Z,100133.81
2022-10-09T01:15:24.522Z,100124.41
2022-10-09T01:16:35.890Z,100119.09
2022-10-09T01:17:37.995Z,100119.88
2022-10-09T01:18:49.027Z,100119.00
2022-10-09T01:20:06.721Z,100120.72
2022-10-09T01:21:24.965Z,100119.88
2022-10-09T01:23:03.530Z,100123.28
2022-10-09T01:24:35.338Z,100120.72
2022-10-09T01:26:08.537Z,100122.44
2022-10-09T01:27:23.565Z,100112.91
2022-10-09T01:28:29.003Z,100108.63
2022-10-09T01:29:54.180Z,100109.47
2022-10-09T01:31:00.030Z,100121.00
2022-10-09T01:32:04.342Z,100108.94
2022-10-09T01:33:06.869Z,100109.88
2022-10-09T01:34:11.786Z,100106.69
2022-10-09T01:35:15.405Z,100117.28
2022-10-09T01:36:19.432Z,100120.72
2022-10-09T01:37:23.214Z,100121.81
2022-10-09T01:38:27.381Z,100124.44
2022-10-09T01:39:31.245Z,100131.47
2022-10-09T01:40:34.370Z,100128.00
2022-10-09T01:41:37.058Z,100117.66
2022-10-09T01:42:39.266Z,100106.31
2022-10-09T01:43:41.545Z,100108.72
2022-10-09T01:44:43.889Z,100106.84
2022-10-09T01:45:48.331Z,100107.63
2022-10-09T01:46:50.792Z,100094.56
2022-10-09T01:47:52.953Z,100101.50
2022-10-09T01:49:06.934Z,100110.53
2022-10-09T01:50:24.953Z,100094.03
2022-10-09T01:51:33.820Z,100106.88
2022-10-09T01:52:47.196Z,100094.59
2022-10-09T01:53:54.469Z,100099.94
2022-10-09T01:55:17.694Z,100097.31
2022-10-09T01:56:22.531Z,100098.22
2022-10-09T01:58:00.090Z,100097.34
2022-10-09T01:59:15.451Z,100091.22
2022-10-09T02:00:18.721Z,100087.03
2022-10-09T02:01:33.855Z,100104.50
2022-10-09T02:02:37.264Z,100095.00
2022-10-09T02:03:42.930Z,100092.53
2022-10-09T02:04:46.188Z,100091.63
2022-10-09T02:05:51.294Z,100092.38
2022-10-09T02:06:54.321Z,100082.66
2022-10-09T02:07:58.056Z,100075.59
2022-10-09T02:09:03.000Z,100072.88
2022-10-09T02:10:06.765Z,100078.16
2022-10-09T02:11:11.349Z,100074.59
2022-10-09T02:12:16.539Z,100071.16
2022-10-09T02:13:18.760Z,100070.34
2022-10-09T02:14:21.295Z,100069.50
2022-10-09T02:15:30.864Z,100072.16
2022-10-09T02:16:43.297Z,100067.03
2022-10-09T02:17:49.613Z,100070.56
2022-10-09T02:19:01.392Z,100074.00
2022-10-09T02:20:09.018Z,100071.28
2022-10-09T02:21:16.713Z,100066.97
2022-10-09T02:22:25.000Z,100059.06
2022-10-09T02:23:28.782Z,100065.13
2022-10-09T02:24:31.163Z,100063.47
2022-10-09T02:25:34.038Z,100074.38
2022-10-09T02:26:37.814Z,100073.44
2022-10-09T02:27:40.043Z,100070.09
2022-10-09T02:28:45.849Z,100076.28
2022-10-09T02:29:49.238Z,100075.41
2022-10-09T02:31:00.464Z,100068.63
2022-10-09T02:32:03.244Z,100078.91
2022-10-09T02:33:05.805Z,100075.53
2022-10-09T02:34:11.604Z,100074.66
2022-10-09T02:35:13.782Z,100078.03
2022-10-09T02:36:16.245Z,100077.03
2022-10-09T02:37:18.907Z,100077.06
2022-10-09T02:38:21.036Z,100071.06
2022-10-09T02:39:23.315Z,100075.56
2022-10-09T02:40:25.475Z,100078.31
2022-10-09T02:41:27.986Z,100075.81
2022-10-09T02:42:30.141Z,100064.69
2022-10-09T02:43:32.500Z,100068.97
2022-10-09T02:44:34.837Z,100070.69
2022-10-09T02:45:37.070Z,100058.56
2022-10-09T02:46:39.440Z,100068.13
2022-10-09T02:47:41.672Z,100065.59
2022-10-09T02:48:43.926Z,100060.50
2022-10-09T02:49:46.065Z,100070.94
2022-10-09T02:50:48.267Z,100071.75
2022-10-09T02:51:50.393Z,100059.50
2022-10-09T02:52:52.590Z,100070.75
2022-10-09T02:53:55.596Z,100051.59
2022-10-09T02:54:57.748Z,100056.72
2022-10-09T02:56:00.223Z,100060.06
2022-10-09T02:57:02.397Z,100055.63
2022-10-09T02:58:04.737Z,100056.44
2022-10-09T02:59:07.446Z,100059.84
2022-10-09T03:00:10.211Z,100053.66
2022-10-09T03:01:12.976Z,100054.53
2022-10-09T03:02:15.533Z,100059.84
2022-10-09T03:03:18.535Z,100062.38
2022-10-09T03:04:20.768Z,100049.31
2022-10-09T03:05:22.964Z,100053.63
2022-10-09T03:06:27.141Z,100060.59
2022-10-09T03:07:29.410Z,100058.81
2022-10-09T03:08:32.060Z,100054.41
2022-10-09T03:09:34.218Z,100063.09
2022-10-09T03:10:39.825Z,100056.22
2022-10-09T03:11:41.983Z,100060.59
2022-10-09T03:12:44.529Z,100061.41
2022-10-09T03:13:47.162Z,100056.19
2022-10-09T03:14:49.343Z,100066.56
2022-10-09T03:15:51.619Z,100060.56
2022-10-09T03:16:53.857Z,100056.28
2022-10-09T03:17:56.184Z,100065.84
2022-10-09T03:18:58.542Z,100066.00
2022-10-09T03:20:00.656Z,100061.75
2022-10-09T03:21:10.726Z,100061.84
2022-10-09T03:22:12.913Z,100059.16
2022-10-09T03:23:15.094Z,100063.72
2022-10-09T03:24:17.277Z,100066.34
2022-10-09T03:25:20.274Z,100066.47
2022-10-09T03:26:25.024Z,100064.69
2022-10-09T03:27:27.216Z,100056.94
2022-10-09T03:28:30.380Z,100062.91
2022-10-09T03:29:32.599Z,100064.75
2022-10-09T03:30:34.744Z,100055.94
2022-10-09T03:31:51.666Z,100064.69
2022-10-09T03:32:54.870Z,100060.59
2022-10-09T03:33:57.082Z,100059.75
2022-10-09T03:34:59.230Z,100057.09
2022-10-09T03:36:01.778Z,100061.38
2022-10-09T03:37:04.126Z,100062.16
2022-10-09T03:38:06.286Z,100064.69
2022-10-09T03:39:08.927Z,100056.69
2022-10-09T03:40:11.138Z,100065.47
2022-10-09T03:41:13.388Z,100074.50
2022-10-09T03:42:15.752Z,100074.63
2022-10-09T03:43:18.158Z,100062.44
2022-10-09T03:44:20.298Z,100070.19
2022-10-09T03:45:45.717Z,100057.41
2022-10-09T03:46:48.009Z,100064.50
2022-10-09T03:47:50.262Z,100050.75
2022-10-09T03:48:52.511Z,100052.31
2022-10-09T03:49:54.632Z,100057.25
2022-10-09T03:50:56.811Z,100053.69
2022-10-09T03:51:58.980Z,100061.13
2022-10-09T03:53:21.369Z,100051.94
2022-10-09T03:54:23.731Z,100059.00
2022-10-09T03:55:25.884Z,100070.31
2022-10-09T03:56:28.090Z,100058.94
2022-10-09T03:57:33.290Z,100047.88
2022-10-09T03:58:35.433Z,100060.06
2022-10-09T03:59:37.660Z,100061.81
2022-10-09T04:00:39.921Z,100055.69
2022-10-09T04:01:42.190Z,100060.09
2022-10-09T04:02:44.432Z,100058.94
2022-10-09T04:03:46.694Z,100055.56
2022-10-09T04:04:48.892Z,100058.91
2022-10-09T04:05:51.068Z,100061.53
2022-10-09T04:06:53.377Z,100051.34
2022-10-09T04:07:55.731Z,100049.31
2022-10-09T04:08:57.912Z,100047.88
2022-10-09T04:10:00.232Z,100055.63
2022-10-09T04:11:03.465Z,100058.03
2022-10-09T04:12:05.718Z,100055.09
2022-10-09T04:13:07.901Z,100048.63
2022-10-09T04:14:10.858Z,100067.91
2022-10-09T04:15:13.057Z,100065.13
2022-10-09T04:16:15.270Z,100056.50
2022-10-09T04:17:17.431Z,100060.91
2022-10-09T04:18:20.343Z,100066.47
2022-10-09T04:19:22.508Z,100073.41
2022-10-09T04:20:24.760Z,100068.44
2022-10-09T04:21:27.157Z,100074.56
2022-10-09T04:22:29.758Z,100073.78
2022-10-09T04:23:32.250Z,100069.41
2022-10-09T04:24:34.545Z,100066.00
2022-10-09T04:25:36.684Z,100072.34
2022-10-09T04:26:38.890Z,100068.84
2022-10-09T04:27:41.388Z,100067.94
2022-10-09T04:28:43.723Z,100058.31
2022-10-09T04:29:46.008Z,100060.84
2022-10-09T04:30:48.183Z,100067.03
2022-10-09T04:31:50.419Z,100045.41
2022-10-09T04:32:52.770Z,100055.75
2022-10-09T04:33:55.845Z,100054.94
2022-10-09T04:34:58.046Z,100066.25
2022-10-09T04:36:00.290Z,100062.84
2022-10-09T04:37:02.439Z,100062.84
2022-10-09T04:38:04.639Z,100060.22
2022-10-09T04:39:06.842Z,100063.66
2022-10-09T04:40:09.196Z,100064.47
2022-10-09T04:41:11.393Z,100061.81
2022-10-09T04:42:13.570Z,100063.50
2022-10-09T04:43:15.732Z,100057.34
2022-10-09T04:44:17.985Z,100058.44
2022-10-09T04:45:20.120Z,100066.28
2022-10-09T04:46:22.690Z,100063.72
2022-10-09T04:47:24.886Z,100054.19
2022-10-09T04:48:27.119Z,100055.88
2022-10-09T04:49:29.329Z,100061.06
2022-10-09T04:50:31.530Z,100068.09
2022-10-09T04:51:33.681Z,100065.50
2022-10-09T04:52:35.893Z,100064.59
2022-10-09T04:53:39.288Z,100063.75
2022-10-09T04:54:41.586Z,100059.34
2022-10-09T04:55:44.449Z,100071.50
2022-10-09T04:56:46.726Z,100069.06
2022-10-09T04:57:48.938Z,100060.38
2022-10-09T04:58:51.490Z,100061.25
2022-10-09T04:59:53.780Z,100056.03
2022-10-09T05:01:31.903Z,100061.28
2022-10-09T05:02:36.502Z,100059.56
2022-10-09T05:03:38.711Z,100058.59
2022-10-09T05:04:52.654Z,100051.66
2022-10-09T05:06:00.739Z,100047.28
2022-10-09T05:07:02.927Z,100055.06
2022-10-09T05:08:05.207Z,100046.44
2022-10-09T05:09:07.348Z,100053.47
2022-10-09T05:10:09.635Z,100061.41
2022-10-09T05:11:21.943Z,100063.88
2022-10-09T05:12:24.183Z,100070.75
2022-10-09T05:13:28.399Z,100056.88
2022-10-09T05:14:30.560Z,100060.34
2022-10-09T05:15:37.595Z,100059.59
2022-10-09T05:17:01.293Z,100070.00
2022-10-09T05:18:01.888Z,100069.19
2022-10-09T05:19:04.159Z,100063.16
2022-10-09T05:20:06.832Z,100057.88
2022-10-09T05:21:09.279Z,100057.78
2022-10-09T05:22:11.467Z,100063.84
2022-10-09T05:23:13.637Z,100063.00
2022-10-09T05:24:15.771Z,100056.00
2022-10-09T05:25:17.946Z,100055.94
2022-10-09T05:26:22.640Z,100058.47
2022-10-09T05:27:24.815Z,100055.06
2022-10-09T05:28:27.794Z,100063.91
2022-10-09T05:29:29.983Z,100062.16
2022-10-09T05:30:32.171Z,100050.97
2022-10-09T05:31:34.871Z,100051.91
2022-10-09T05:32:37.074Z,100057.03
2022-10-09T05:33:39.243Z,100056.94
2022-10-09T05:34:41.457Z,100057.97
2022-10-09T05:36:01.351Z,100060.59
2022-10-09T05:37:03.663Z,100065.81
2022-10-09T05:38:05.889Z,100053.59
2022-10-09T05:39:08.046Z,100054.47
2022-10-09T05:40:10.383Z,100058.75
2022-10-09T05:41:15.667Z,100062.31
2022-10-09T05:42:18.165Z,100057.06
2022-10-09T05:43:22.696Z,100053.69
2022-10-09T05:44:24.845Z,100052.78
2022-10-09T05:45:27.440Z,100059.78
2022-10-09T05:46:30.556Z,100052.84
2022-10-09T05:47:33.139Z,100052.88
2022-10-09T05:48:36.597Z,100055.47
2022-10-09T05:49:38.994Z,100056.31
2022-10-09T05:50:42.185Z,100061.50
2022-10-09T05:51:44.849Z,100049.47
2022-10-09T05:52:47.483Z,100054.66
2022-10-09T05:53:50.717Z,100055.47
2022-10-09T05:54:53.178Z,100058.78
2022-10-09T05:55:55.345Z,100052.69
2022-10-09T05:56:57.566Z,100058.78
2022-10-09T05:57:59.748Z,100056.91
2022-10-09T05:59:05.019Z,100052.59
2022-10-09T06:00:07.971Z,100041.34
2022-10-09T06:01:14.579Z,100050.78
2022-10-09T06:02:16.957Z,100048.06
2022-10-09T06:03:19.237Z,100046.31
2022-10-09T06:04:24.085Z,100047.91
2022-10-09T06:05:26.264Z,100049.69
2022-10-09T06:06:30.799Z,100047.09
2022-10-09T06:07:32.991Z,100042.72
2022-10-09T06:08:37.366Z,100047.00
2022-10-09T06:09:39.815Z,100046.06
2022-10-09T06:10:42.042Z,100046.88
2022-10-09T06:11:44.410Z,100046.94
2022-10-09T06:12:47.050Z,100047.81
2022-10-09T06:13:50.977Z,100039.28
2022-10-09T06:14:53.134Z,100043.50
2022-10-09T06:15:55.420Z,100048.69
2022-10-09T06:16:58.985Z,100041.59
2022-10-09T06:18:01.325Z,100040.53
2022-10-09T06:19:04.690Z,100041.38
2022-10-09T06:20:07.040Z,100035.06
2022-10-09T06:21:09.299Z,100037.78
2022-10-09T06:22:11.659Z,100044.72
2022-10-09T06:23:13.953Z,100044.56
2022-10-09T06:24:28.761Z,100042.84
2022-10-09T06:25:31.814Z,100050.69
2022-10-09T06:26:34.312Z,100039.19
2022-10-09T06:27:36.475Z,100041.78
2022-10-09T06:28:39.918Z,100042.56
2022-10-09T06:29:42.121Z,100033.81
2022-10-09T06:30:44.322Z,100043.16
2022-10-09T06:31:46.712Z,100036.00
2022-10-09T06:32:49.649Z,100030.50
2022-10-09T06:33:53.318Z,100030.44
2022-10-09T06:34:57.283Z,100038.09
2022-10-09T06:36:10.318Z,100044.97
2022-10-09T06:37:12.762Z,100038.81
2022-10-09T06:38:15.357Z,100033.44
2022-10-09T06:39:17.804Z,100034.34
2022-10-09T06:40:20.062Z,100029.94
2022-10-09T06:41:24.455Z,100041.22
2022-10-09T06:42:26.695Z,100044.78
2022-10-09T06:43:33.507Z,100037.91
2022-10-09T06:44:35.693Z,100037.91
2022-10-09T06:45:38.585Z,100037.69
2022-10-09T06:46:41.568Z,100041.75
2022-10-09T06:47:44.088Z,100036.31
2022-10-09T06:48:46.415Z,100036.16
2022-10-09T06:49:48.607Z,100040.47
2022-10-09T06:50:50.764Z,100039.53
2022-10-09T06:51:52.946Z,100040.22
2022-10-09T06:52:55.438Z,100041.22
2022-10-09T06:54:01.624Z,100035.22
2022-10-09T06:55:04.331Z,100036.50
2022-10-09T06:56:08.715Z,100041.66
2022-10-09T06:57:11.035Z,100032.06
2022-10-09T06:58:13.232Z,100035.50
2022-10-09T06:59:15.502Z,100033.66
2022-10-09T07:00:17.773Z,100043.69
2022-10-09T07:01:26.758Z,100044.28
2022-10-09T07:02:31.703Z,100034.63
2022-10-09T07:03:35.277Z,100033.91
2022-10-09T07:04:37.561Z,100042.97
2022-10-09T07:05:39.992Z,100044.84
2022-10-09T07:06:44.285Z,100037.31
2022-10-09T07:07:46.636Z,100031.44
2022-10-09T07:08:51.620Z,100036.66
2022-10-09T07:09:54.374Z,100040.09
2022-10-09T07:10:56.539Z,100037.63
2022-10-09T07:11:58.804Z,100038.06
2022-10-09T07:13:00.975Z,100029.88
2022-10-09T07:14:05.016Z,100040.34
2022-10-09T07:15:08.922Z,100029.06
2022-10-09T07:16:11.492Z,100041.50
2022-10-09T07:17:13.757Z,100045.34
2022-10-09T07:18:16.132Z,100044.94
2022-10-09T07:19:18.790Z,100039.44
2022-10-09T07:20:21.076Z,100047.28
2022-10-09T07:21:24.055Z,100046.13
2022-10-09T07:22:27.211Z,100051.69
2022-10-09T07:23:31.287Z,100050.44
2022-10-09T07:24:33.480Z,100050.78
2022-10-09T07:25:38.687Z,100055.63
2022-10-09T07:26:44.000Z,100046.72
2022-10-09T07:27:46.291Z,100057.34
2022-10-09T07:28:48.984Z,100055.41
2022-10-09T07:29:51.210Z,100046.72
2022-10-09T07:30:53.862Z,100057.63
2022-10-09T07:31:56.110Z,100064.09
2022-10-09T07:32:58.379Z,100062.03
2022-10-09T07:34:00.899Z,100056.81
2022-10-09T07:35:03.196Z,100051.91
2022-10-09T07:36:07.018Z,100055.16
2022-10-09T07:37:09.199Z,100048.84
2022-10-09T07:38:11.540Z,100051.25
2022-10-09T07:39:13.842Z,100054.19
2022-10-09T07:40:16.280Z,100058.25
2022-10-09T07:41:19.611Z,100053.44
2022-10-09T07:42:21.921Z,100046.41
2022-10-09T07:43:24.134Z,100057.16
2022-10-09T07:44:26.284Z,100056.66
2022-10-09T07:45:28.460Z,100053.50
2022-10-09T07:46:33.732Z,100041.34
2022-10-09T07:47:36.288Z,100047.34
2022-10-09T07:48:38.824Z,100055.28
2022-10-09T07:49:41.001Z,100043.81
2022-10-09T07:50:43.195Z,100045.34
2022-10-09T07:51:45.593Z,100046.06
2022-10-09T07:52:48.518Z,100056.03
2022-10-09T07:53:51.553Z,100051.59
2022-10-09T07:54:53.823Z,100045.50
2022-10-09T07:55:56.270Z,100046.03
2022-10-09T07:56:58.545Z,100046.72
2022-10-09T07:58:00.725Z,100041.09
2022-10-09T07:59:05.782Z,100048.75
2022-10-09T08:00:08.509Z,100052.84
2022-10-09T08:01:19.658Z,100056.31
2022-10-09T08:02:22.642Z,100050.97
2022-10-09T08:03:24.942Z,100061.94
2022-10-09T08:04:27.184Z,100052.09
2022-10-09T08:05:29.352Z,100046.56
2022-10-09T08:06:32.499Z,100035.84
2022-10-09T08:07:35.152Z,100049.84
2022-10-09T08:08:37.550Z,100048.13
2022-10-09T08:09:40.421Z,100058.31
2022-10-09T08:10:42.590Z,100041.53
2022-10-09T08:11:45.035Z,100048.34
2022-10-09T08:12:47.736Z,100056.59
2022-10-09T08:13:50.893Z,100041.13
2022-10-09T08:14:53.246Z,100045.63
2022-10-09T08:15:58.408Z,100041.84
2022-10-09T08:17:00.663Z,100045.25
2022-10-09T08:18:03.346Z,100044.00
2022-10-09T08:19:09.788Z,100044.34
2022-10-09T08:20:12.387Z,100044.72
2022-10-09T08:21:17.296Z,100049.28
2022-10-09T08:22:20.015Z,100048.78
2022-10-09T08:23:22.389Z,100039.78
2022-10-09T08:24:24.662Z,100044.34
2022-10-09T08:25:26.998Z,100044.34
2022-10-09T08:26:30.854Z,100042.50
2022-10-09T08:27:33.033Z,100042.97
2022-10-09T08:28:35.444Z,100047.31
2022-10-09T08:29:40.226Z,100049.34
2022-10-09T08:30:42.835Z,100049.91
2022-10-09T08:31:46.222Z,100047.94
2022-10-09T08:32:48.624Z,100049.56
2022-10-09T08:33:55.456Z,100050.16
2022-10-09T08:34:57.682Z,100042.59
2022-10-09T08:36:06.083Z,100043.25
2022-10-09T08:37:08.248Z,100044.94
2022-10-09T08:38:25.304Z,100052.47
2022-10-09T08:39:32.592Z,100049.03
2022-10-09T08:40:46.480Z,100058.72
2022-10-09T08:41:51.799Z,100054.75
2022-10-09T08:43:06.284Z,100051.44
2022-10-09T08:44:24.317Z,100059.22
2022-10-09T08:45:27.349Z,100048.63
2022-10-09T08:46:39.918Z,100049.91
2022-10-09T08:47:45.377Z,100052.06
2022-10-09T08:48:49.179Z,100046.56
2022-10-09T08:50:09.023Z,100041.91
2022-10-09T08:51:22.287Z,100051.97
2022-10-09T08:52:44.852Z,100053.19
2022-10-09T08:53:56.193Z,100049.94
2022-10-09T08:55:04.151Z,100051.59
2022-10-09T08:56:13.388Z,100054.53
2022-10-09T08:57:17.508Z,100054.53
2022-10-09T08:58:21.185Z,100047.63
2022-10-09T08:59:23.421Z,100038.59
2022-10-09T09:00:31.169Z,100053.41
2022-10-09T09:01:45.188Z,100041.59
2022-10-09T09:03:11.422Z,100046.59
2022-10-09T09:04:55.179Z,100047.16
2022-10-09T09:06:05.508Z,100056.19
2022-10-09T09:07:42.480Z,100053.47
2022-10-09T09:09:19.195Z,100048.56
2022-10-09T09:10:45.539Z,100044.41
2022-10-09T09:12:13.823Z,100043.09
2022-10-09T09:13:57.512Z,100047.25
2022-10-09T09:15:21.846Z,100038.22
2022-10-09T09:16:53.026Z,100032.97
2022-10-09T09:18:29.101Z,100036.41
2022-10-09T09:19:59.056Z,100037.91
2022-10-09T09:21:36.315Z,100033.50
2022-10-09T09:22:45.916Z,100029.56
2022-10-09T09:23:48.794Z,100030.25
2022-10-09T09:24:57.010Z,100027.56
2022-10-09T09:25:59.629Z,100033.88
2022-10-09T09:27:10.340Z,100033.09
2022-10-09T09:28:20.437Z,100032.97
2022-10-09T09:29:23.966Z,100017.03
2022-10-09T09:30:33.943Z,100022.44
2022-10-09T09:31:37.165Z,100022.41
2022-10-09T09:32:44.376Z,100034.16
2022-10-09T09:34:09.448Z,100029.22
2022-10-09T09:35:46.878Z,100027.75
2022-10-09T09:36:54.332Z,100026.63
2022-10-09T09:37:56.660Z,100022.44
2022-10-09T09:40:44.325Z,100018.94
2022-10-09T09:41:47.691Z,100014.03
2022-10-09T09:42:51.358Z,100017.13
2022-10-09T09:43:53.922Z,100022.25
2022-10-09T09:45:01.576Z,100019.25
2022-10-09T09:46:10.145Z,100017.28
2022-10-09T09:47:20.468Z,100008.59
2022-10-09T09:48:30.898Z,100029.13
2022-10-09T09:49:33.191Z,100006.81
2022-10-09T09:50:53.159Z,100015.47
2022-10-09T09:52:02.201Z,100028.75
2022-10-09T09:53:11.363Z,100001.47
2022-10-09T09:54:19.251Z,100012.03
2022-10-09T09:55:27.524Z,100004.69
2022-10-09T09:58:17.260Z,99998.41
2022-10-09T09:59:33.986Z,99994.47
2022-10-09T10:00:36.307Z,99999.91
2022-10-09T10:01:38.584Z,99988.25
2022-10-09T10:02:41.770Z,100000.31
2022-10-09T10:03:48.305Z,99997.91
2022-10-09T10:04:53.947Z,99991.78
2022-10-09T10:05:56.727Z,99982.53
2022-10-09T10:06:59.026Z,99983.75
2022-10-09T10:08:01.321Z,99984.72
2022-10-09T10:09:05.493Z,99977.13
2022-10-09T10:10:24.052Z,99983.66
2022-10-09T10:11:28.732Z,99970.50
2022-10-09T10:12:31.226Z,99980.25
2022-10-09T10:13:38.199Z,99972.91
2022-10-09T10:14:50.027Z,99976.59
2022-10-09T10:15:57.065Z,99970.56
2022-10-09T10:17:01.153Z,99968.19
2022-10-09T10:18:13.045Z,99961.31
2022-10-09T10:19:25.766Z,99963.44
2022-10-09T10:20:30.431Z,99968.56
2022-10-09T10:21:48.791Z,99963.56
2022-10-09T10:22:53.225Z,99961.00
2022-10-09T10:24:05.785Z,99949.94
2022-10-09T10:25:17.792Z,99968.59
2022-10-09T10:26:34.834Z,99967.25
2022-10-09T10:27:41.659Z,99953.00
2022-10-09T10:28:52.700Z,99946.53
2022-10-09T10:30:02.551Z,99942.84
2022-10-09T10:31:07.814Z,99935.34
2022-10-09T10:32:23.589Z,99947.91
2022-10-09T10:33:29.674Z,99955.81
2022-10-09T10:34:47.535Z,99935.00
2022-10-09T10:35:52.447Z,99945.25
2022-10-09T10:37:21.418Z,99945.84
2022-10-09T10:38:52.495Z,99934.13
2022-10-09T10:39:59.519Z,99942.16
2022-10-09T10:41:26.022Z,99934.28
2022-10-09T10:42:42.284Z,99937.28
2022-10-09T10:43:49.366Z,99931.72
2022-10-09T10:45:13.329Z,99935.91
2022-10-09T10:46:49.498Z,99929.81
2022-10-09T10:47:55.162Z,99922.75
2022-10-09T10:48:59.605Z,99920.03
2022-10-09T10:50:01.811Z,99931.75
2022-10-09T10:51:29.837Z,99921.38
2022-10-09T10:52:52.764Z,99917.03
2022-10-09T10:54:03.622Z,99910.38
2022-10-09T10:55:26.682Z,99916.78
2022-10-09T10:56:34.365Z,99930.53
2022-10-09T10:58:01.482Z,99929.75
2022-10-09T10:59:24.755Z,99929.09
2022-10-09T11:00:28.391Z,99921.31
2022-10-09T11:02:09.374Z,99918.97
2022-10-09T11:03:20.647Z,99918.41
2022-10-09T11:04:55.088Z,99910.94
2022-10-09T11:06:14.073Z,99920.59
2022-10-09T11:07:34.233Z,99923.34
2022-10-09T11:09:15.624Z,99912.56
2022-10-09T11:10:29.884Z,99915.41
2022-10-09T11:11:59.634Z,99904.19
2022-10-09T11:13:15.386Z,99906.28
2022-10-09T11:14:26.210Z,99900.09
2022-10-09T11:15:39.023Z,99900.09
2022-10-09T11:16:57.177Z,99905.63
2022-10-09T11:18:25.375Z,99895.88
2022-10-09T11:19:52.022Z,99901.84
2022-10-09T11:20:56.942Z,99901.31
2022-10-09T11:22:27.270Z,99884.75
2022-10-09T11:24:01.951Z,99893.59
2022-10-09T11:25:29.728Z,99884.78
2022-10-09T11:26:53.328Z,99885.31
2022-10-09T11:28:07.319Z,99877.84
2022-10-09T11:29:18.401Z,99873.91
2022-10-09T11:30:21.879Z,99881.41
2022-10-09T11:31:44.746Z,99885.88
2022-10-09T11:33:12.888Z,99876.31
2022-10-09T11:34:21.365Z,99876.16
2022-10-09T11:35:28.170Z,99881.38
2022-10-09T11:36:48.498Z,99853.25
2022-10-09T11:38:04.642Z,99873.34
2022-10-09T11:39:18.611Z,99868.91
2022-10-09T11:40:26.617Z,99864.16
2022-10-09T11:41:30.362Z,99871.03
2022-10-09T11:42:32.770Z,99861.03
2022-10-09T11:43:42.205Z,99860.69
2022-10-09T11:45:13.935Z,99857.13
2022-10-09T11:46:40.366Z,99860.00
2022-10-09T11:47:55.121Z,99852.66
2022-10-09T11:49:04.966Z,99855.41
2022-10-09T11:50:10.038Z,99855.72
2022-10-09T11:51:20.322Z,99849.66
2022-10-09T11:52:30.291Z,99850.06
2022-10-09T11:53:37.040Z,99848.38
2022-10-09T11:54:40.847Z,99845.97
2022-10-09T11:55:43.304Z,99849.66
2022-10-09T11:57:06.377Z,99835.53
2022-10-09T11:58:22.187Z,99849.91
2022-10-09T11:59:36.330Z,99830.66
2022-10-09T12:00:39.327Z,99825.53
2022-10-09T12:01:44.726Z,99828.00
2022-10-09T12:02:58.842Z,99827.44
2022-10-09T12:04:02.786Z,99816.75
2022-10-09T12:05:31.599Z,99820.44
2022-10-09T12:06:46.595Z,99817.53
2022-10-09T12:07:48.823Z,99809.28
2022-10-09T12:09:08.196Z,99804.59
2022-10-09T12:10:41.764Z,99806.66
2022-10-09T12:11:59.224Z,99805.03
2022-10-09T12:13:07.184Z,99821.47
2022-10-09T12:14:11.807Z,99792.69
2022-10-09T12:15:27.038Z,99791.69
2022-10-09T12:16:39.880Z,99799.69
2022-10-09T12:17:49.908Z,99792.03
2022-10-09T12:18:52.286Z,99783.88
2022-10-09T12:20:01.633Z,99780.91
2022-10-09T12:21:24.776Z,99782.78
2022-10-09T12:22:32.608Z,99787.22
2022-10-09T12:23:39.396Z,99782.19
2022-10-09T12:24:45.133Z,99783.69
2022-10-09T12:25:48.178Z,99787.88
2022-10-09T12:26:53.505Z,99784.72
2022-10-09T12:27:57.513Z,99773.22
2022-10-09T12:29:05.110Z,99770.44
2022-10-09T12:30:13.948Z,99764.06
2022-10-09T12:31:26.440Z,99761.59
2022-10-09T12:32:36.733Z,99759.50
2022-10-09T12:33:47.960Z,99760.97
2022-10-09T12:34:52.037Z,99757.75
2022-10-09T12:36:05.226Z,99755.59
2022-10-09T12:37:19.482Z,99755.28
2022-10-09T12:38:26.253Z,99745.94
2022-10-09T12:39:28.595Z,99752.44
2022-10-09T12:40:33.917Z,99737.88
2022-10-09T12:41:36.962Z,99745.06
2022-10-09T12:42:39.553Z,99739.28
2022-10-09T12:43:45.894Z,99740.69
2022-10-09T12:44:49.721Z,99735.56
2022-10-09T12:45:53.589Z,99736.19
2022-10-09T12:47:02.612Z,99742.19
2022-10-09T12:48:11.557Z,99725.38
2022-10-09T12:49:20.854Z,99727.16
2022-10-09T12:50:27.187Z,99725.81
2022-10-09T12:51:31.627Z,99732.88
2022-10-09T12:52:33.905Z,99722.19